createdAt,value
2023-03-16T00:00:38.135Z,12.20
2023-03-16T00:03:22.143Z,12.04
2023-03-16T00:05:53.477Z,11.88
2023-03-16T00:08:23.292Z,11.41
2023-03-16T00:10:54.263Z,11.71
2023-03-16T00:13:25.550Z,11.59
2023-03-16T00:15:57.260Z,11.58
2023-03-16T00:18:29.998Z,11.49
2023-03-16T00:21:02.253Z,11.40
2023-03-16T00:23:36.270Z,11.49
2023-03-16T00:26:07.495Z,11.02
2023-03-16T00:28:37.628Z,11.40
2023-03-16T00:31:08.926Z,11.76
2023-03-16T00:33:39.957Z,11.67
2023-03-16T00:36:11.493Z,11.75
2023-03-16T00:38:45.252Z,11.49
2023-03-16T00:41:16.307Z,11.63
2023-03-16T00:43:46.519Z,11.94
2023-03-16T00:46:18.736Z,11.88
2023-03-16T00:48:49.791Z,11.81
2023-03-16T00:51:20.796Z,11.98
2023-03-16T00:53:50.885Z,11.71
2023-03-16T00:56:20.447Z,11.52
2023-03-16T00:58:50.866Z,11.24
2023-03-16T01:01:21.160Z,11.69
2023-03-16T01:03:52.589Z,11.67
2023-03-16T01:06:22.254Z,11.55
2023-03-16T01:08:52.489Z,11.31
2023-03-16T01:11:24.122Z,11.37
2023-03-16T01:13:55.354Z,10.71
2023-03-16T01:16:24.876Z,11.07
2023-03-16T01:18:57.733Z,10.97
2023-03-16T01:21:27.364Z,11.04
2023-03-16T01:23:57.282Z,11.07
2023-03-16T01:26:26.838Z,10.78
2023-03-16T01:28:56.400Z,11.06
2023-03-16T01:31:26.004Z,11.03
2023-03-16T01:33:57.060Z,11.20
2023-03-16T01:36:29.973Z,10.97
2023-03-16T01:39:04.200Z,11.08
2023-03-16T01:41:38.504Z,10.94
2023-03-16T01:44:09.022Z,11.11
2023-03-16T01:46:38.570Z,11.33
2023-03-16T01:49:13.742Z,11.16
2023-03-16T01:51:47.848Z,11.13
2023-03-16T01:54:24.828Z,10.95
2023-03-16T01:57:01.602Z,10.50
2023-03-16T01:59:36.999Z,10.65
2023-03-16T02:02:07.689Z,10.69
2023-03-16T02:04:53.418Z,11.46
2023-03-16T02:07:27.088Z,11.33
2023-03-16T02:09:59.524Z,11.16
2023-03-16T02:12:29.665Z,11.51
2023-03-16T02:15:01.075Z,11.23
2023-03-16T02:17:33.336Z,10.96
2023-03-16T02:20:23.129Z,11.34
2023-03-16T02:22:56.629Z,11.14
2023-03-16T02:25:32.798Z,11.43
2023-03-16T02:28:07.017Z,11.64
2023-03-16T02:30:43.012Z,11.28
2023-03-16T02:33:13.416Z,11.49
2023-03-16T02:35:43.162Z,11.04
2023-03-16T02:38:13.174Z,11.00
2023-03-16T02:40:59.390Z,11.09
2023-03-16T02:43:34.382Z,10.79
2023-03-16T02:46:28.710Z,10.78
2023-03-16T02:49:04.348Z,10.91
2023-03-16T02:51:34.027Z,10.54
2023-03-16T02:54:03.414Z,10.62
2023-03-16T02:56:36.123Z,10.53
2023-03-16T02:59:05.697Z,10.33
2023-03-16T03:01:36.896Z,10.60
2023-03-16T03:04:07.360Z,10.91
2023-03-16T03:06:37.119Z,10.92
2023-03-16T03:09:06.932Z,10.59
2023-03-16T03:11:36.675Z,10.88
2023-03-16T03:14:06.613Z,10.51
2023-03-16T03:16:38.505Z,10.69
2023-03-16T03:19:07.842Z,10.52
2023-03-16T03:21:40.621Z,10.38
2023-03-16T03:24:11.045Z,10.77
2023-03-16T03:26:40.745Z,10.79
2023-03-16T03:29:16.821Z,10.81
2023-03-16T03:36:11.394Z,11.20
2023-03-16T03:38:42.546Z,11.09
2023-03-16T03:41:12.982Z,11.43
2023-03-16T03:43:42.663Z,11.19
2023-03-16T03:46:17.579Z,11.24
2023-03-16T03:48:47.017Z,11.12
2023-03-16T03:51:18.281Z,11.44
2023-03-16T03:53:54.731Z,11.12
2023-03-16T03:56:40.753Z,11.20
2023-03-16T03:59:14.991Z,11.09
2023-03-16T04:02:03.330Z,11.04
2023-03-16T04:04:43.400Z,10.65
2023-03-16T04:07:16.240Z,11.18
2023-03-16T04:09:47.126Z,11.29
2023-03-16T04:12:26.856Z,11.60
2023-03-16T04:14:56.751Z,11.76
2023-03-16T04:17:27.674Z,11.87
2023-03-16T04:20:00.460Z,11.93
2023-03-16T04:22:31.422Z,11.77
2023-03-16T04:25:03.022Z,11.52
2023-03-16T04:27:36.865Z,11.56
2023-03-16T04:30:11.399Z,11.84
2023-03-16T04:32:44.611Z,11.59
2023-03-16T04:35:18.181Z,11.66
2023-03-16T04:37:53.861Z,11.61
2023-03-16T04:40:28.293Z,11.81
2023-03-16T04:43:06.136Z,12.09
2023-03-16T04:45:36.994Z,11.88
2023-03-16T04:48:07.330Z,11.60
2023-03-16T04:50:37.136Z,11.76
2023-03-16T04:53:08.967Z,11.34
2023-03-16T04:55:38.900Z,11.77
2023-03-16T04:58:09.517Z,11.90
2023-03-16T05:00:41.648Z,11.65
2023-03-16T05:03:24.802Z,11.77
2023-03-16T05:05:54.251Z,11.89
2023-03-16T05:08:26.014Z,11.96
2023-03-16T05:10:59.109Z,11.85
2023-03-16T05:13:32.478Z,12.00
2023-03-16T05:16:02.949Z,11.90
2023-03-16T05:18:36.515Z,12.41
2023-03-16T05:21:06.093Z,12.34
2023-03-16T05:23:49.750Z,12.13
2023-03-16T05:26:19.437Z,12.48
2023-03-16T05:28:49.710Z,12.36
2023-03-16T05:31:20.836Z,12.44
2023-03-16T05:33:54.560Z,12.24
2023-03-16T05:36:24.927Z,12.44
2023-03-16T05:38:59.789Z,12.55
2023-03-16T05:41:34.881Z,12.75
2023-03-16T05:44:19.594Z,12.64
2023-03-16T05:47:01.435Z,12.29
2023-03-16T05:49:33.445Z,12.67
2023-03-16T05:52:06.096Z,12.71
2023-03-16T05:54:39.825Z,12.76
2023-03-16T05:57:12.119Z,11.70
2023-03-16T05:59:44.127Z,12.61
2023-03-16T06:02:14.488Z,13.24
2023-03-16T06:04:44.325Z,13.10
2023-03-16T06:07:13.700Z,13.25
2023-03-16T06:09:44.825Z,12.76
2023-03-16T06:12:17.736Z,12.73
2023-03-16T06:14:47.607Z,13.46
2023-03-16T06:17:17.750Z,13.73
2023-03-16T06:19:47.460Z,13.84
2023-03-16T06:22:16.722Z,13.73
2023-03-16T06:24:47.824Z,12.54
2023-03-16T06:27:18.678Z,13.37
2023-03-16T06:30:01.969Z,13.84
2023-03-16T06:32:32.159Z,14.46
2023-03-16T06:35:03.600Z,13.84
2023-03-16T06:37:34.338Z,13.98
2023-03-16T06:40:14.737Z,14.42
2023-03-16T06:42:46.320Z,14.10
2023-03-16T06:45:22.189Z,14.38
2023-03-16T06:47:52.647Z,14.36
2023-03-16T06:50:22.361Z,14.81
2023-03-16T06:52:52.006Z,14.55
2023-03-16T06:55:23.247Z,15.15
2023-03-16T06:57:52.602Z,15.26
2023-03-16T07:00:22.970Z,14.48
2023-03-16T07:02:53.171Z,14.38
2023-03-16T07:05:41.973Z,13.92
2023-03-16T07:08:12.191Z,12.90
2023-03-16T07:10:43.339Z,12.89
2023-03-16T07:13:14.967Z,12.93
2023-03-16T07:15:46.720Z,13.81
2023-03-16T07:18:16.603Z,12.90
2023-03-16T07:20:46.920Z,13.58
2023-03-16T07:28:13.276Z,15.13
2023-03-16T07:31:02.165Z,16.08
2023-03-16T07:33:37.268Z,16.73
2023-03-16T07:36:10.962Z,16.81
2023-03-16T07:38:47.556Z,16.88
2023-03-16T07:41:17.237Z,17.04
2023-03-16T07:43:49.501Z,17.17
2023-03-16T07:46:19.181Z,17.56
2023-03-16T07:48:50.417Z,16.49
2023-03-16T07:51:20.240Z,16.97
2023-03-16T07:53:52.501Z,16.94
2023-03-16T07:56:31.656Z,17.41
2023-03-16T07:59:14.842Z,17.46
2023-03-16T08:01:44.732Z,17.30
2023-03-16T08:04:14.608Z,16.05
2023-03-16T08:06:44.376Z,16.89
2023-03-16T08:09:15.620Z,16.85
2023-03-16T08:11:46.773Z,17.16
2023-03-16T08:14:17.935Z,15.84
2023-03-16T08:17:05.666Z,14.31
2023-03-16T08:19:36.110Z,14.91
2023-03-16T08:22:09.255Z,14.18
2023-03-16T08:24:43.297Z,13.85
2023-03-16T08:27:16.245Z,13.98
2023-03-16T08:29:54.171Z,14.42
2023-03-16T08:32:26.963Z,14.92
2023-03-16T08:34:58.988Z,14.27
2023-03-16T08:37:28.683Z,15.02
2023-03-16T08:40:00.499Z,16.10
2023-03-16T08:42:32.589Z,14.43
2023-03-16T08:45:12.223Z,15.92
2023-03-16T08:47:44.533Z,16.40
2023-03-16T08:50:16.658Z,15.55
2023-03-16T08:52:45.950Z,16.57
2023-03-16T08:55:16.293Z,16.09
2023-03-16T08:57:46.553Z,15.75
2023-03-16T09:00:18.521Z,16.24
2023-03-16T09:02:48.075Z,16.58
2023-03-16T09:05:18.465Z,17.40
2023-03-16T09:07:48.982Z,15.44
2023-03-16T09:10:19.058Z,16.67
2023-03-16T09:12:48.481Z,17.41
2023-03-16T09:15:21.036Z,17.42
2023-03-16T09:17:50.593Z,16.77
2023-03-16T09:20:26.502Z,15.91
2023-03-16T09:22:57.803Z,16.07
2023-03-16T09:25:28.178Z,16.34
2023-03-16T09:27:58.126Z,17.08
2023-03-16T09:30:29.792Z,17.23
2023-03-16T09:32:59.694Z,16.03
2023-03-16T09:35:34.391Z,17.40
2023-03-16T09:38:06.959Z,18.25
2023-03-16T09:40:41.520Z,17.51
2023-03-16T09:43:26.224Z,17.63
2023-03-16T09:46:13.134Z,18.17
2023-03-16T09:48:43.344Z,18.90
2023-03-16T09:51:21.782Z,19.14
2023-03-16T09:53:54.444Z,18.51
2023-03-16T09:56:32.115Z,18.40
2023-03-16T09:59:03.365Z,19.64
2023-03-16T10:01:48.336Z,18.71
2023-03-16T10:04:30.532Z,18.61
2023-03-16T10:07:14.029Z,17.71
2023-03-16T10:09:51.060Z,18.82
2023-03-16T10:12:23.304Z,18.87
2023-03-16T10:14:59.138Z,19.68
2023-03-16T10:17:37.497Z,20.98
2023-03-16T10:20:09.554Z,21.11
2023-03-16T10:22:43.350Z,20.30
2023-03-16T10:25:21.275Z,20.34
2023-03-16T10:27:53.116Z,20.69
2023-03-16T10:30:28.440Z,19.97
2023-03-16T10:33:05.535Z,18.66
2023-03-16T10:35:45.611Z,19.56
2023-03-16T10:38:38.746Z,18.30
2023-03-16T10:41:22.695Z,19.57
2023-03-16T10:43:55.584Z,19.61
2023-03-16T10:46:27.680Z,18.52
2023-03-16T10:49:01.384Z,18.47
2023-03-16T10:51:34.921Z,18.69
2023-03-16T10:54:14.359Z,18.61
2023-03-16T10:56:44.280Z,18.83
2023-03-16T10:59:28.424Z,19.04
2023-03-16T11:01:59.732Z,19.39
2023-03-16T11:04:34.602Z,19.51
2023-03-16T11:07:04.311Z,19.84
2023-03-16T11:09:37.332Z,18.95
2023-03-16T11:12:16.422Z,20.64
2023-03-16T11:14:47.058Z,20.94
2023-03-16T11:17:20.342Z,21.35
2023-03-16T11:19:55.845Z,21.44
2023-03-16T11:22:27.055Z,21.17
2023-03-16T11:25:04.382Z,20.90
2023-03-16T11:27:40.565Z,21.00
2023-03-16T11:30:20.346Z,21.08
2023-03-16T11:32:53.592Z,20.55
2023-03-16T11:35:31.584Z,23.17
2023-03-16T11:38:12.493Z,24.72
2023-03-16T11:40:50.973Z,27.09
2023-03-16T11:43:50.146Z,25.25
2023-03-16T11:46:24.682Z,24.24
2023-03-16T11:49:14.637Z,22.30
2023-03-16T11:51:50.098Z,22.23
2023-03-16T11:54:41.597Z,22.76
2023-03-16T11:57:29.354Z,22.99
2023-03-16T12:00:13.006Z,25.75
2023-03-16T12:03:02.190Z,23.98
2023-03-16T12:05:49.481Z,22.11
2023-03-16T12:08:50.127Z,21.44
2023-03-16T12:12:30.807Z,-140.87
2023-03-16T12:16:11.091Z,-140.87
2023-03-16T12:19:47.173Z,-140.87
2023-03-16T12:23:23.564Z,-140.87
2023-03-16T12:26:54.589Z,-140.87
2023-03-16T12:30:39.757Z,-140.87
2023-03-16T12:34:11.887Z,-140.87
2023-03-16T12:37:55.286Z,-140.87
2023-03-16T12:41:36.400Z,-140.87
2023-03-16T12:45:16.635Z,-140.87
2023-03-16T12:48:50.437Z,-140.87
2023-03-16T12:52:19.477Z,-140.87
2023-03-16T12:55:51.948Z,-140.87
2023-03-16T12:59:25.804Z,-140.87
2023-03-16T13:02:59.883Z,-140.87
2023-03-16T13:06:36.314Z,-140.87
2023-03-16T13:10:08.955Z,-140.87
2023-03-16T13:13:50.931Z,-140.87
2023-03-16T13:17:28.998Z,-140.87
2023-03-16T13:21:14.551Z,-140.87
2023-03-16T13:25:14.114Z,-140.87
2023-03-16T13:28:47.182Z,-140.87
2023-03-16T13:32:27.728Z,-140.87
2023-03-16T13:36:00.321Z,-140.87
2023-03-16T13:39:30.301Z,-140.87
2023-03-16T13:43:03.264Z,-140.87
2023-03-16T13:46:34.578Z,-140.87
2023-03-16T13:50:02.776Z,-140.87
2023-03-16T13:53:32.966Z,-140.87
2023-03-16T13:57:04.299Z,-140.87
2023-03-16T14:00:34.691Z,-140.87
2023-03-16T14:04:13.918Z,-140.87
2023-03-16T14:07:41.854Z,-140.87
2023-03-16T14:11:11.700Z,-140.87
2023-03-16T14:14:41.370Z,-140.87
2023-03-16T14:18:16.604Z,-140.87
2023-03-16T14:21:45.670Z,-140.87
2023-03-16T14:25:23.711Z,-140.87
2023-03-16T14:28:59.836Z,-140.87
2023-03-16T14:32:35.381Z,-140.87
2023-03-16T14:36:17.644Z,-140.87
2023-03-16T14:39:47.023Z,-140.87
2023-03-16T14:43:16.270Z,-140.87
2023-03-16T14:46:44.298Z,-140.87
2023-03-16T14:50:26.408Z,-140.87
2023-03-16T14:53:56.219Z,-140.87
2023-03-16T14:57:24.574Z,-140.87
2023-03-16T15:00:53.916Z,-140.87
2023-03-16T15:04:26.000Z,-140.87
2023-03-16T15:07:56.488Z,-140.87
2023-03-16T15:11:26.331Z,-140.87
2023-03-16T15:15:12.121Z,-140.87
2023-03-16T15:18:40.332Z,-140.87
2023-03-16T15:22:13.665Z,-140.87
2023-03-16T15:25:42.189Z,-140.87
2023-03-16T15:29:12.961Z,-140.87
2023-03-16T15:32:41.269Z,-140.87
2023-03-16T15:36:14.920Z,-140.87
2023-03-16T15:39:46.375Z,-140.87
2023-03-16T15:43:16.843Z,-140.87
2023-03-16T15:46:45.128Z,-140.87
2023-03-16T15:50:14.089Z,-140.87
2023-03-16T15:53:45.754Z,-140.87
2023-03-16T15:57:14.956Z,-140.87
2023-03-16T16:00:43.314Z,-140.87
2023-03-16T16:04:14.572Z,-140.87
2023-03-16T16:07:42.385Z,-140.87
2023-03-16T16:11:16.766Z,-140.87
2023-03-16T16:14:44.763Z,-140.87
2023-03-16T16:18:25.434Z,-140.87
2023-03-16T16:21:55.341Z,-140.87
2023-03-16T16:25:25.997Z,-140.87
2023-03-16T16:28:54.321Z,-140.87
2023-03-16T16:32:24.807Z,-140.87
2023-03-16T16:35:53.138Z,-140.87
2023-03-16T16:39:22.006Z,-140.87
2023-03-16T16:42:53.048Z,-140.87
2023-03-16T16:46:24.111Z,-140.87
2023-03-16T16:49:53.725Z,-140.87
2023-03-16T16:53:21.908Z,-140.87
2023-03-16T16:56:53.251Z,-140.87
2023-03-16T17:00:23.828Z,-140.87
2023-03-16T17:03:52.293Z,-140.87
2023-03-16T17:07:21.160Z,-140.87
2023-03-16T17:10:49.507Z,-140.87
2023-03-16T17:14:27.647Z,-140.87
2023-03-16T17:18:03.169Z,-140.87
2023-03-16T17:21:32.118Z,-140.87
2023-03-16T17:25:00.552Z,-140.87
2023-03-16T17:28:32.958Z,-140.87
2023-03-16T17:32:01.960Z,-140.87
2023-03-16T17:35:33.078Z,-140.87
2023-03-16T17:39:03.239Z,-140.87
2023-03-16T17:42:31.167Z,-140.87
2023-03-16T17:46:01.958Z,-140.87
2023-03-16T17:49:30.833Z,-140.87
2023-03-16T17:52:59.724Z,-140.87
2023-03-16T17:56:30.085Z,-140.87
2023-03-16T17:59:58.705Z,-140.87
2023-03-16T18:03:39.596Z,-140.87
2023-03-16T18:07:12.581Z,-140.87
2023-03-16T18:10:40.963Z,-140.87
2023-03-16T18:14:22.037Z,-140.87
2023-03-16T18:17:52.972Z,-140.87
2023-03-16T18:21:23.721Z,-140.87
2023-03-16T18:24:53.191Z,-140.87
2023-03-16T18:28:24.897Z,-140.87
2023-03-16T18:31:55.307Z,-140.87
2023-03-16T18:35:25.392Z,-140.87
2023-03-16T18:38:53.888Z,-140.87
2023-03-16T18:42:24.232Z,-140.87
2023-03-16T18:45:54.804Z,-140.87
2023-03-16T18:49:31.145Z,-140.87
2023-03-16T18:52:59.549Z,-140.87
2023-03-16T18:56:28.685Z,-140.87
2023-03-16T18:59:57.865Z,-140.87
2023-03-16T19:03:30.725Z,-140.87
2023-03-16T19:07:01.489Z,-140.87
2023-03-16T19:10:32.174Z,-140.87
2023-03-16T19:14:00.251Z,-140.87
2023-03-16T19:17:28.442Z,-140.87
2023-03-16T19:20:56.992Z,-140.87
2023-03-16T19:24:29.259Z,-140.87
2023-03-16T19:27:58.257Z,-140.87
2023-03-16T19:31:29.852Z,-140.87
2023-03-16T19:34:58.591Z,-140.87
2023-03-16T19:38:28.499Z,-140.87
2023-03-16T19:41:59.025Z,-140.87
2023-03-16T19:45:31.360Z,-140.87
2023-03-16T19:48:59.655Z,-140.87
2023-03-16T19:52:31.379Z,-140.87
2023-03-16T19:56:00.612Z,-140.87
2023-03-16T19:59:33.890Z,-140.87
2023-03-16T20:03:03.090Z,-140.87
2023-03-16T20:06:33.460Z,-140.87
2023-03-16T20:10:03.489Z,-140.87
2023-03-16T20:13:32.574Z,-140.87
2023-03-16T20:17:01.164Z,-140.87
2023-03-16T20:20:30.166Z,-140.87
2023-03-16T20:23:58.534Z,-140.87
2023-03-16T20:27:30.750Z,-140.87
2023-03-16T20:31:00.106Z,-140.87
2023-03-16T20:34:29.736Z,-140.87
2023-03-16T20:37:58.007Z,-140.87
2023-03-16T20:41:28.359Z,-140.87
2023-03-16T20:44:59.236Z,-140.87
2023-03-16T20:48:28.005Z,-140.87
2023-03-16T20:51:58.225Z,-140.87
2023-03-16T20:55:29.338Z,-140.87
2023-03-16T20:58:59.098Z,-140.87
2023-03-16T21:02:28.528Z,-140.87
2023-03-16T21:05:59.623Z,-140.87
2023-03-16T21:09:31.134Z,-140.87
2023-03-16T21:12:59.782Z,-140.87
2023-03-16T21:16:30.658Z,-140.87
2023-03-16T21:19:59.476Z,-140.87
2023-03-16T21:23:28.510Z,-140.87
2023-03-16T21:26:58.260Z,-140.87
2023-03-16T21:30:28.800Z,-140.87
2023-03-16T21:33:59.907Z,-140.87
2023-03-16T21:37:30.407Z,-140.87
2023-03-16T21:40:58.714Z,-140.87
2023-03-16T21:44:27.493Z,-140.87
2023-03-16T21:47:56.327Z,-140.87
2023-03-16T21:51:31.366Z,-140.87
2023-03-16T21:54:59.951Z,-140.87
2023-03-16T21:58:28.125Z,-140.87
2023-03-16T22:02:01.843Z,-140.87
2023-03-16T22:05:33.717Z,-140.87
2023-03-16T22:09:04.249Z,-140.87
2023-03-16T22:12:32.627Z,-140.87
2023-03-16T22:16:02.419Z,-140.87
2023-03-16T22:19:32.532Z,-140.87
2023-03-16T22:23:02.993Z,-140.87
2023-03-16T22:26:30.997Z,-140.87
2023-03-16T22:29:59.874Z,-140.87
2023-03-16T22:33:29.885Z,-140.87
2023-03-16T22:36:59.721Z,-140.87
2023-03-16T22:40:32.340Z,-140.87
2023-03-16T22:44:02.914Z,-140.87
2023-03-16T22:47:32.606Z,-140.87
2023-03-16T22:51:02.522Z,-140.87
2023-03-16T22:54:36.386Z,-140.87
2023-03-16T22:58:07.963Z,-140.87
2023-03-16T23:01:37.015Z,-140.87
2023-03-16T23:05:19.289Z,-140.87
2023-03-16T23:08:48.158Z,-140.87
2023-03-16T23:12:22.137Z,-140.87
2023-03-16T23:15:51.617Z,-140.87
2023-03-16T23:19:25.125Z,-140.87
2023-03-16T23:22:54.469Z,-140.87
2023-03-16T23:26:25.425Z,-140.87
2023-03-16T23:29:55.513Z,-140.87
2023-03-16T23:33:23.631Z,-140.87
2023-03-16T23:36:52.039Z,-140.87
2023-03-16T23:40:20.866Z,-140.87
2023-03-16T23:43:51.986Z,-140.87
2023-03-16T23:47:20.821Z,-140.87
2023-03-16T23:50:49.522Z,-140.87
2023-03-16T23:54:20.209Z,-140.87
2023-03-16T23:57:48.314Z,-140.87
